sensor_id;sensor_type;location;lat;lon;timestamp;P1;durP1;ratioP1;P2;durP2;ratioP2
31786;SDS011;18356;52.380;9.820;2022-09-09T00:02:27;7.80;;;2.40;;
31786;SDS011;18356;52.380;9.820;2022-09-09T00:07:46;5.45;;;2.15;;
31786;SDS011;18356;52.380;9.820;2022-09-09T00:12:57;6.70;;;2.13;;
31786;SDS011;18356;52.380;9.820;2022-09-09T00:15:29;5.68;;;2.30;;
31786;SDS011;18356;52.380;9.820;2022-09-09T00:23:10;5.28;;;2.00;;
31786;SDS011;18356;52.380;9.820;2022-09-09T00:25:55;4.45;;;1.77;;
31786;SDS011;18356;52.380;9.820;2022-09-09T00:28:25;4.85;;;1.83;;
31786;SDS011;18356;52.380;9.820;2022-09-09T00:30:51;3.83;;;1.83;;
31786;SDS011;18356;52.380;9.820;2022-09-09T00:33:22;5.55;;;1.85;;
31786;SDS011;18356;52.380;9.820;2022-09-09T00:43:25;4.53;;;1.80;;
31786;SDS011;18356;52.380;9.820;2022-09-09T00:56:21;4.03;;;1.48;;
31786;SDS011;18356;52.380;9.820;2022-09-09T00:58:52;4.32;;;1.50;;
31786;SDS011;18356;52.380;9.820;2022-09-09T01:01:21;5.47;;;1.30;;
31786;SDS011;18356;52.380;9.820;2022-09-09T01:11:25;2.88;;;1.58;;
31786;SDS011;18356;52.380;9.820;2022-09-09T01:16:36;4.18;;;1.73;;
31786;SDS011;18356;52.380;9.820;2022-09-09T01:19:03;6.15;;;1.63;;
31786;SDS011;18356;52.380;9.820;2022-09-09T01:21:38;4.45;;;1.70;;
31786;SDS011;18356;52.380;9.820;2022-09-09T01:24:14;2.78;;;1.40;;
31786;SDS011;18356;52.380;9.820;2022-09-09T01:26:42;5.07;;;1.63;;
31786;SDS011;18356;52.380;9.820;2022-09-09T01:29:10;9.02;;;1.75;;
31786;SDS011;18356;52.380;9.820;2022-09-09T01:31:38;4.18;;;1.30;;
31786;SDS011;18356;52.380;9.820;2022-09-09T01:34:12;3.22;;;1.48;;
31786;SDS011;18356;52.380;9.820;2022-09-09T01:36:42;3.78;;;1.63;;
31786;SDS011;18356;52.380;9.820;2022-09-09T01:39:09;10.52;;;2.03;;
31786;SDS011;18356;52.380;9.820;2022-09-09T01:41:35;3.63;;;1.70;;
31786;SDS011;18356;52.380;9.820;2022-09-09T01:44:02;6.35;;;1.30;;
31786;SDS011;18356;52.380;9.820;2022-09-09T01:46:29;3.75;;;1.23;;
31786;SDS011;18356;52.380;9.820;2022-09-09T01:48:56;5.30;;;1.35;;
31786;SDS011;18356;52.380;9.820;2022-09-09T01:51:23;2.88;;;1.55;;
31786;SDS011;18356;52.380;9.820;2022-09-09T01:53:49;5.32;;;1.48;;
31786;SDS011;18356;52.380;9.820;2022-09-09T01:56:19;4.10;;;1.88;;
31786;SDS011;18356;52.380;9.820;2022-09-09T02:01:55;4.10;;;1.20;;
31786;SDS011;18356;52.380;9.820;2022-09-09T02:06:49;6.30;;;1.50;;
31786;SDS011;18356;52.380;9.820;2022-09-09T02:09:19;3.53;;;1.30;;
31786;SDS011;18356;52.380;9.820;2022-09-09T02:11:48;6.57;;;1.40;;
31786;SDS011;18356;52.380;9.820;2022-09-09T02:14:16;3.30;;;1.27;;
31786;SDS011;18356;52.380;9.820;2022-09-09T02:16:44;3.05;;;1.25;;
31786;SDS011;18356;52.380;9.820;2022-09-09T02:21:46;3.55;;;1.40;;
31786;SDS011;18356;52.380;9.820;2022-09-09T02:24:12;5.43;;;1.30;;
31786;SDS011;18356;52.380;9.820;2022-09-09T02:26:40;2.65;;;1.27;;
31786;SDS011;18356;52.380;9.820;2022-09-09T02:29:17;3.53;;;1.40;;
31786;SDS011;18356;52.380;9.820;2022-09-09T02:31:45;5.55;;;1.42;;
31786;SDS011;18356;52.380;9.820;2022-09-09T02:34:12;5.38;;;1.30;;
31786;SDS011;18356;52.380;9.820;2022-09-09T02:36:40;4.75;;;1.60;;
31786;SDS011;18356;52.380;9.820;2022-09-09T02:39:08;3.00;;;1.23;;
31786;SDS011;18356;52.380;9.820;2022-09-09T02:41:36;4.15;;;1.42;;
31786;SDS011;18356;52.380;9.820;2022-09-09T02:44:13;2.65;;;1.30;;
31786;SDS011;18356;52.380;9.820;2022-09-09T02:52:00;3.10;;;1.35;;
31786;SDS011;18356;52.380;9.820;2022-09-09T02:54:28;5.20;;;1.40;;
31786;SDS011;18356;52.380;9.820;2022-09-09T02:57:04;3.00;;;1.35;;
31786;SDS011;18356;52.380;9.820;2022-09-09T02:59:32;5.25;;;1.42;;
31786;SDS011;18356;52.380;9.820;2022-09-09T03:01:59;7.97;;;1.42;;
31786;SDS011;18356;52.380;9.820;2022-09-09T03:04:26;3.50;;;1.45;;
31786;SDS011;18356;52.380;9.820;2022-09-09T03:06:52;2.67;;;1.25;;
31786;SDS011;18356;52.380;9.820;2022-09-09T03:09:18;6.65;;;1.17;;
31786;SDS011;18356;52.380;9.820;2022-09-09T03:11:44;4.25;;;1.48;;
31786;SDS011;18356;52.380;9.820;2022-09-09T03:14:10;5.35;;;1.80;;
31786;SDS011;18356;52.380;9.820;2022-09-09T03:16:36;6.22;;;1.77;;
31786;SDS011;18356;52.380;9.820;2022-09-09T03:19:02;3.45;;;1.45;;
31786;SDS011;18356;52.380;9.820;2022-09-09T03:21:28;6.45;;;1.50;;
31786;SDS011;18356;52.380;9.820;2022-09-09T03:23:55;6.97;;;2.17;;
31786;SDS011;18356;52.380;9.820;2022-09-09T03:26:22;4.82;;;1.70;;
31786;SDS011;18356;52.380;9.820;2022-09-09T03:28:48;5.47;;;1.60;;
31786;SDS011;18356;52.380;9.820;2022-09-09T03:31:14;8.40;;;1.77;;
31786;SDS011;18356;52.380;9.820;2022-09-09T03:33:41;6.45;;;1.60;;
31786;SDS011;18356;52.380;9.820;2022-09-09T03:36:08;4.25;;;1.67;;
31786;SDS011;18356;52.380;9.820;2022-09-09T03:38:35;8.25;;;1.63;;
31786;SDS011;18356;52.380;9.820;2022-09-09T03:41:02;4.93;;;1.88;;
31786;SDS011;18356;52.380;9.820;2022-09-09T03:43:28;5.97;;;1.58;;
31786;SDS011;18356;52.380;9.820;2022-09-09T03:45:55;5.00;;;1.63;;
31786;SDS011;18356;52.380;9.820;2022-09-09T03:48:22;7.15;;;1.52;;
31786;SDS011;18356;52.380;9.820;2022-09-09T03:50:49;6.72;;;1.65;;
31786;SDS011;18356;52.380;9.820;2022-09-09T03:53:16;6.78;;;2.17;;
31786;SDS011;18356;52.380;9.820;2022-09-09T03:55:46;5.55;;;1.75;;
31786;SDS011;18356;52.380;9.820;2022-09-09T03:58:15;5.32;;;1.42;;
31786;SDS011;18356;52.380;9.820;2022-09-09T04:00:44;8.25;;;1.27;;
31786;SDS011;18356;52.380;9.820;2022-09-09T04:03:18;5.93;;;1.83;;
31786;SDS011;18356;52.380;9.820;2022-09-09T04:05:44;5.80;;;1.70;;
31786;SDS011;18356;52.380;9.820;2022-09-09T04:08:10;6.30;;;1.50;;
31786;SDS011;18356;52.380;9.820;2022-09-09T04:10:36;7.85;;;1.70;;
31786;SDS011;18356;52.380;9.820;2022-09-09T04:13:05;4.63;;;1.40;;
31786;SDS011;18356;52.380;9.820;2022-09-09T04:15:31;6.97;;;1.88;;
31786;SDS011;18356;52.380;9.820;2022-09-09T04:18:00;6.18;;;1.60;;
31786;SDS011;18356;52.380;9.820;2022-09-09T04:20:27;4.88;;;1.42;;
31786;SDS011;18356;52.380;9.820;2022-09-09T04:22:56;5.95;;;1.40;;
31786;SDS011;18356;52.380;9.820;2022-09-09T04:25:22;4.00;;;1.45;;
31786;SDS011;18356;52.380;9.820;2022-09-09T04:27:52;6.65;;;1.45;;
31786;SDS011;18356;52.380;9.820;2022-09-09T04:30:19;6.63;;;1.80;;
31786;SDS011;18356;52.380;9.820;2022-09-09T04:32:46;5.60;;;1.42;;
31786;SDS011;18356;52.380;9.820;2022-09-09T04:35:12;7.05;;;1.70;;
31786;SDS011;18356;52.380;9.820;2022-09-09T04:37:38;6.35;;;1.73;;
31786;SDS011;18356;52.380;9.820;2022-09-09T04:40:04;8.65;;;1.70;;
31786;SDS011;18356;52.380;9.820;2022-09-09T04:42:34;6.30;;;1.83;;
31786;SDS011;18356;52.380;9.820;2022-09-09T04:45:00;5.25;;;1.70;;
31786;SDS011;18356;52.380;9.820;2022-09-09T04:47:26;5.68;;;1.88;;
31786;SDS011;18356;52.380;9.820;2022-09-09T04:49:52;4.88;;;1.60;;
31786;SDS011;18356;52.380;9.820;2022-09-09T04:52:19;6.22;;;1.90;;
31786;SDS011;18356;52.380;9.820;2022-09-09T04:54:46;3.08;;;1.50;;
31786;SDS011;18356;52.380;9.820;2022-09-09T04:57:13;5.63;;;2.10;;
31786;SDS011;18356;52.380;9.820;2022-09-09T04:59:39;5.60;;;1.73;;
31786;SDS011;18356;52.380;9.820;2022-09-09T05:02:07;5.78;;;1.80;;
31786;SDS011;18356;52.380;9.820;2022-09-09T05:04:33;3.63;;;1.45;;
31786;SDS011;18356;52.380;9.820;2022-09-09T05:06:59;5.13;;;1.73;;
31786;SDS011;18356;52.380;9.820;2022-09-09T05:09:25;5.68;;;1.40;;
31786;SDS011;18356;52.380;9.820;2022-09-09T05:11:51;5.03;;;1.70;;
31786;SDS011;18356;52.380;9.820;2022-09-09T05:14:17;3.53;;;1.50;;
31786;SDS011;18356;52.380;9.820;2022-09-09T05:16:46;6.68;;;1.65;;
31786;SDS011;18356;52.380;9.820;2022-09-09T05:19:12;8.38;;;1.98;;
31786;SDS011;18356;52.380;9.820;2022-09-09T05:21:38;5.53;;;1.58;;
31786;SDS011;18356;52.380;9.820;2022-09-09T05:24:06;5.88;;;1.75;;
31786;SDS011;18356;52.380;9.820;2022-09-09T05:26:32;6.13;;;1.60;;
31786;SDS011;18356;52.380;9.820;2022-09-09T05:28:58;5.05;;;1.70;;
31786;SDS011;18356;52.380;9.820;2022-09-09T05:31:25;6.20;;;1.77;;
31786;SDS011;18356;52.380;9.820;2022-09-09T05:33:53;10.25;;;2.20;;
31786;SDS011;18356;52.380;9.820;2022-09-09T05:36:21;8.40;;;1.67;;
31786;SDS011;18356;52.380;9.820;2022-09-09T05:38:47;5.70;;;1.55;;
31786;SDS011;18356;52.380;9.820;2022-09-09T05:41:14;4.50;;;1.52;;
31786;SDS011;18356;52.380;9.820;2022-09-09T05:43:41;5.88;;;1.60;;
31786;SDS011;18356;52.380;9.820;2022-09-09T05:46:13;4.40;;;1.40;;
31786;SDS011;18356;52.380;9.820;2022-09-09T05:48:40;5.65;;;1.50;;
31786;SDS011;18356;52.380;9.820;2022-09-09T05:51:08;5.53;;;1.40;;
31786;SDS011;18356;52.380;9.820;2022-09-09T05:53:34;5.50;;;1.67;;
31786;SDS011;18356;52.380;9.820;2022-09-09T05:58:28;7.72;;;1.60;;
31786;SDS011;18356;52.380;9.820;2022-09-09T06:01:16;6.45;;;1.80;;
31786;SDS011;18356;52.380;9.820;2022-09-09T06:03:42;6.93;;;1.50;;
31786;SDS011;18356;52.380;9.820;2022-09-09T06:06:09;7.55;;;1.83;;
31786;SDS011;18356;52.380;9.820;2022-09-09T06:08:36;6.15;;;1.45;;
31786;SDS011;18356;52.380;9.820;2022-09-09T06:11:08;5.93;;;1.73;;
31786;SDS011;18356;52.380;9.820;2022-09-09T06:13:34;5.65;;;1.42;;
31786;SDS011;18356;52.380;9.820;2022-09-09T06:16:02;6.45;;;1.85;;
31786;SDS011;18356;52.380;9.820;2022-09-09T06:18:29;8.55;;;1.80;;
31786;SDS011;18356;52.380;9.820;2022-09-09T06:20:59;6.20;;;1.67;;
31786;SDS011;18356;52.380;9.820;2022-09-09T06:23:26;5.88;;;1.52;;
31786;SDS011;18356;52.380;9.820;2022-09-09T06:26:00;6.57;;;1.67;;
31786;SDS011;18356;52.380;9.820;2022-09-09T06:28:26;3.92;;;1.60;;
31786;SDS011;18356;52.380;9.820;2022-09-09T06:31:02;4.70;;;1.80;;
31786;SDS011;18356;52.380;9.820;2022-09-09T06:33:33;7.70;;;1.90;;
31786;SDS011;18356;52.380;9.820;2022-09-09T06:36:00;7.70;;;1.80;;
31786;SDS011;18356;52.380;9.820;2022-09-09T06:38:28;6.95;;;1.90;;
31786;SDS011;18356;52.380;9.820;2022-09-09T06:40:55;6.95;;;2.10;;
31786;SDS011;18356;52.380;9.820;2022-09-09T06:43:23;7.18;;;1.73;;
31786;SDS011;18356;52.380;9.820;2022-09-09T06:45:56;10.25;;;1.92;;
31786;SDS011;18356;52.380;9.820;2022-09-09T06:48:23;8.63;;;2.40;;
31786;SDS011;18356;52.380;9.820;2022-09-09T06:50:51;7.90;;;1.88;;
31786;SDS011;18356;52.380;9.820;2022-09-09T06:53:17;8.27;;;1.70;;
31786;SDS011;18356;52.380;9.820;2022-09-09T06:55:44;6.95;;;2.03;;
31786;SDS011;18356;52.380;9.820;2022-09-09T06:58:10;5.90;;;1.50;;
31786;SDS011;18356;52.380;9.820;2022-09-09T07:00:36;4.65;;;1.65;;
31786;SDS011;18356;52.380;9.820;2022-09-09T07:03:03;8.07;;;1.95;;
31786;SDS011;18356;52.380;9.820;2022-09-09T07:05:31;9.55;;;2.03;;
31786;SDS011;18356;52.380;9.820;2022-09-09T07:07:57;5.05;;;1.80;;
31786;SDS011;18356;52.380;9.820;2022-09-09T07:10:23;5.93;;;1.70;;
31786;SDS011;18356;52.380;9.820;2022-09-09T07:12:50;5.40;;;1.75;;
31786;SDS011;18356;52.380;9.820;2022-09-09T07:15:17;3.30;;;1.35;;
31786;SDS011;18356;52.380;9.820;2022-09-09T07:17:48;4.90;;;1.70;;
31786;SDS011;18356;52.380;9.820;2022-09-09T07:20:15;6.57;;;1.58;;
31786;SDS011;18356;52.380;9.820;2022-09-09T07:22:41;4.07;;;1.35;;
31786;SDS011;18356;52.380;9.820;2022-09-09T07:25:07;5.82;;;1.80;;
31786;SDS011;18356;52.380;9.820;2022-09-09T07:27:33;5.55;;;1.80;;
31786;SDS011;18356;52.380;9.820;2022-09-09T07:29:59;9.23;;;2.70;;
31786;SDS011;18356;52.380;9.820;2022-09-09T07:32:28;8.07;;;2.03;;
31786;SDS011;18356;52.380;9.820;2022-09-09T07:34:55;8.40;;;1.83;;
31786;SDS011;18356;52.380;9.820;2022-09-09T07:37:23;7.30;;;1.90;;
31786;SDS011;18356;52.380;9.820;2022-09-09T07:39:49;5.47;;;1.48;;
31786;SDS011;18356;52.380;9.820;2022-09-09T07:42:16;6.97;;;2.17;;
31786;SDS011;18356;52.380;9.820;2022-09-09T07:44:42;7.30;;;1.50;;
31786;SDS011;18356;52.380;9.820;2022-09-09T07:47:08;7.72;;;1.50;;
31786;SDS011;18356;52.380;9.820;2022-09-09T07:49:34;6.22;;;1.33;;
31786;SDS011;18356;52.380;9.820;2022-09-09T07:52:00;7.05;;;1.77;;
31786;SDS011;18356;52.380;9.820;2022-09-09T07:54:28;8.65;;;1.50;;
31786;SDS011;18356;52.380;9.820;2022-09-09T07:56:54;5.03;;;1.50;;
31786;SDS011;18356;52.380;9.820;2022-09-09T07:59:20;5.85;;;1.52;;
31786;SDS011;18356;52.380;9.820;2022-09-09T08:01:47;3.95;;;1.10;;
31786;SDS011;18356;52.380;9.820;2022-09-09T08:04:14;8.35;;;1.45;;
31786;SDS011;18356;52.380;9.820;2022-09-09T08:06:42;4.90;;;1.13;;
31786;SDS011;18356;52.380;9.820;2022-09-09T08:09:09;5.80;;;1.33;;
31786;SDS011;18356;52.380;9.820;2022-09-09T08:11:35;6.57;;;1.60;;
31786;SDS011;18356;52.380;9.820;2022-09-09T08:14:02;5.65;;;1.23;;
31786;SDS011;18356;52.380;9.820;2022-09-09T08:16:29;6.70;;;1.20;;
31786;SDS011;18356;52.380;9.820;2022-09-09T08:18:56;8.85;;;1.33;;
31786;SDS011;18356;52.380;9.820;2022-09-09T08:21:25;4.75;;;1.30;;
31786;SDS011;18356;52.380;9.820;2022-09-09T08:23:54;5.53;;;1.13;;
31786;SDS011;18356;52.380;9.820;2022-09-09T08:26:29;4.90;;;1.13;;
31786;SDS011;18356;52.380;9.820;2022-09-09T08:28:57;4.60;;;0.95;;
31786;SDS011;18356;52.380;9.820;2022-09-09T08:31:34;5.40;;;1.48;;
31786;SDS011;18356;52.380;9.820;2022-09-09T08:34:01;4.97;;;1.40;;
31786;SDS011;18356;52.380;9.820;2022-09-09T08:36:29;5.32;;;1.13;;
31786;SDS011;18356;52.380;9.820;2022-09-09T08:38:56;7.88;;;1.50;;
31786;SDS011;18356;52.380;9.820;2022-09-09T08:43:58;8.57;;;1.20;;
31786;SDS011;18356;52.380;9.820;2022-09-09T08:46:33;5.32;;;1.00;;
31786;SDS011;18356;52.380;9.820;2022-09-09T08:49:18;6.55;;;1.25;;
31786;SDS011;18356;52.380;9.820;2022-09-09T08:51:48;5.75;;;1.30;;
31786;SDS011;18356;52.380;9.820;2022-09-09T08:54:14;5.28;;;1.42;;
31786;SDS011;18356;52.380;9.820;2022-09-09T08:56:42;4.35;;;1.10;;
31786;SDS011;18356;52.380;9.820;2022-09-09T08:59:11;6.50;;;1.30;;
31786;SDS011;18356;52.380;9.820;2022-09-09T09:01:50;7.07;;;1.20;;
31786;SDS011;18356;52.380;9.820;2022-09-09T09:04:29;8.35;;;1.20;;
31786;SDS011;18356;52.380;9.820;2022-09-09T09:12:15;4.80;;;0.80;;
31786;SDS011;18356;52.380;9.820;2022-09-09T09:14:42;6.55;;;1.10;;
31786;SDS011;18356;52.380;9.820;2022-09-09T09:17:12;7.97;;;1.45;;
31786;SDS011;18356;52.380;9.820;2022-09-09T09:19:40;5.88;;;1.27;;
31786;SDS011;18356;52.380;9.820;2022-09-09T09:22:20;5.78;;;1.20;;
31786;SDS011;18356;52.380;9.820;2022-09-09T09:24:59;5.30;;;1.00;;
31786;SDS011;18356;52.380;9.820;2022-09-09T09:30:17;3.70;;;1.20;;
31786;SDS011;18356;52.380;9.820;2022-09-09T09:32:48;3.42;;;0.88;;
31786;SDS011;18356;52.380;9.820;2022-09-09T09:35:17;6.13;;;1.30;;
31786;SDS011;18356;52.380;9.820;2022-09-09T09:37:44;6.47;;;0.98;;
31786;SDS011;18356;52.380;9.820;2022-09-09T09:42:37;7.00;;;1.00;;
31786;SDS011;18356;52.380;9.820;2022-09-09T09:45:16;7.00;;;1.15;;
31786;SDS011;18356;52.380;9.820;2022-09-09T09:47:46;4.25;;;0.85;;
31786;SDS011;18356;52.380;9.820;2022-09-09T09:50:16;5.65;;;1.50;;
31786;SDS011;18356;52.380;9.820;2022-09-09T09:52:42;4.78;;;0.90;;
31786;SDS011;18356;52.380;9.820;2022-09-09T09:55:19;4.63;;;0.88;;
31786;SDS011;18356;52.380;9.820;2022-09-09T09:57:45;6.63;;;1.13;;
31786;SDS011;18356;52.380;9.820;2022-09-09T10:02:42;6.90;;;1.00;;
31786;SDS011;18356;52.380;9.820;2022-09-09T10:05:13;8.95;;;1.05;;
31786;SDS011;18356;52.380;9.820;2022-09-09T10:07:39;7.05;;;1.50;;
31786;SDS011;18356;52.380;9.820;2022-09-09T10:10:08;6.45;;;1.20;;
31786;SDS011;18356;52.380;9.820;2022-09-09T10:23:26;6.53;;;1.38;;
31786;SDS011;18356;52.380;9.820;2022-09-09T10:31:17;6.88;;;1.20;;
31786;SDS011;18356;52.380;9.820;2022-09-09T10:36:22;8.30;;;1.40;;
31786;SDS011;18356;52.380;9.820;2022-09-09T10:43:57;4.88;;;1.02;;
31786;SDS011;18356;52.380;9.820;2022-09-09T10:49:27;6.47;;;1.50;;
31786;SDS011;18356;52.380;9.820;2022-09-09T10:57:24;4.85;;;1.10;;
31786;SDS011;18356;52.380;9.820;2022-09-09T10:59:53;5.68;;;1.20;;
31786;SDS011;18356;52.380;9.820;2022-09-09T11:02:28;7.65;;;1.30;;
31786;SDS011;18356;52.380;9.820;2022-09-09T11:04:57;5.45;;;0.98;;
31786;SDS011;18356;52.380;9.820;2022-09-09T11:07:48;5.15;;;1.25;;
31786;SDS011;18356;52.380;9.820;2022-09-09T11:12:45;7.47;;;1.40;;
31786;SDS011;18356;52.380;9.820;2022-09-09T11:17:46;6.32;;;1.38;;
31786;SDS011;18356;52.380;9.820;2022-09-09T11:20:14;4.82;;;1.10;;
31786;SDS011;18356;52.380;9.820;2022-09-09T11:22:48;10.65;;;1.60;;
31786;SDS011;18356;52.380;9.820;2022-09-09T11:25:21;8.13;;;1.33;;
31786;SDS011;18356;52.380;9.820;2022-09-09T11:30:16;6.18;;;0.90;;
31786;SDS011;18356;52.380;9.820;2022-09-09T11:35:30;6.47;;;1.10;;
31786;SDS011;18356;52.380;9.820;2022-09-09T11:38:19;7.97;;;1.05;;
31786;SDS011;18356;52.380;9.820;2022-09-09T11:40:47;9.07;;;1.30;;
31786;SDS011;18356;52.380;9.820;2022-09-09T11:43:22;16.77;;;2.63;;
31786;SDS011;18356;52.380;9.820;2022-09-09T11:45:50;12.70;;;1.95;;
31786;SDS011;18356;52.380;9.820;2022-09-09T11:48:26;9.75;;;1.23;;
31786;SDS011;18356;52.380;9.820;2022-09-09T11:50:58;7.82;;;1.38;;
31786;SDS011;18356;52.380;9.820;2022-09-09T11:53:25;9.73;;;1.13;;
31786;SDS011;18356;52.380;9.820;2022-09-09T11:56:09;3.13;;;0.88;;
31786;SDS011;18356;52.380;9.820;2022-09-09T11:58:37;7.28;;;1.10;;
31786;SDS011;18356;52.380;9.820;2022-09-09T12:03:49;4.20;;;0.82;;
31786;SDS011;18356;52.380;9.820;2022-09-09T12:06:33;7.35;;;0.90;;
31786;SDS011;18356;52.380;9.820;2022-09-09T12:09:08;5.68;;;0.90;;
31786;SDS011;18356;52.380;9.820;2022-09-09T12:11:37;5.55;;;0.88;;
31786;SDS011;18356;52.380;9.820;2022-09-09T12:14:03;6.28;;;1.00;;
31786;SDS011;18356;52.380;9.820;2022-09-09T12:16:33;4.30;;;0.82;;
31786;SDS011;18356;52.380;9.820;2022-09-09T12:19:13;4.60;;;0.85;;
31786;SDS011;18356;52.380;9.820;2022-09-09T12:24:10;4.10;;;0.95;;
31786;SDS011;18356;52.380;9.820;2022-09-09T12:29:42;6.05;;;1.23;;
31786;SDS011;18356;52.380;9.820;2022-09-09T12:32:11;5.38;;;0.88;;
31786;SDS011;18356;52.380;9.820;2022-09-09T12:37:08;4.38;;;1.02;;
31786;SDS011;18356;52.380;9.820;2022-09-09T12:39:41;6.65;;;1.60;;
31786;SDS011;18356;52.380;9.820;2022-09-09T12:42:18;4.97;;;1.23;;
31786;SDS011;18356;52.380;9.820;2022-09-09T12:45:19;4.55;;;1.20;;
31786;SDS011;18356;52.380;9.820;2022-09-09T12:47:38;3.72;;;0.85;;
31786;SDS011;18356;52.380;9.820;2022-09-09T12:50:16;3.65;;;0.98;;
31786;SDS011;18356;52.380;9.820;2022-09-09T12:52:43;6.88;;;0.88;;
31786;SDS011;18356;52.380;9.820;2022-09-09T12:55:18;6.22;;;0.73;;
31786;SDS011;18356;52.380;9.820;2022-09-09T12:57:44;4.75;;;0.85;;
31786;SDS011;18356;52.380;9.820;2022-09-09T13:00:14;2.45;;;0.50;;
31786;SDS011;18356;52.380;9.820;2022-09-09T13:02:49;2.55;;;0.60;;
31786;SDS011;18356;52.380;9.820;2022-09-09T13:05:16;3.75;;;1.27;;
31786;SDS011;18356;52.380;9.820;2022-09-09T13:07:43;5.20;;;1.52;;
31786;SDS011;18356;52.380;9.820;2022-09-09T13:10:13;5.07;;;1.52;;
31786;SDS011;18356;52.380;9.820;2022-09-09T13:12:40;3.58;;;1.50;;
31786;SDS011;18356;52.380;9.820;2022-09-09T13:15:11;2.45;;;1.13;;
31786;SDS011;18356;52.380;9.820;2022-09-09T13:17:38;5.20;;;1.10;;
31786;SDS011;18356;52.380;9.820;2022-09-09T13:20:05;2.90;;;0.77;;
31786;SDS011;18356;52.380;9.820;2022-09-09T13:22:35;2.60;;;0.75;;
31786;SDS011;18356;52.380;9.820;2022-09-09T13:27:30;4.55;;;0.75;;
31786;SDS011;18356;52.380;9.820;2022-09-09T13:29:56;3.83;;;0.95;;
31786;SDS011;18356;52.380;9.820;2022-09-09T13:32:24;5.47;;;1.05;;
31786;SDS011;18356;52.380;9.820;2022-09-09T13:34:58;5.30;;;0.90;;
31786;SDS011;18356;52.380;9.820;2022-09-09T13:39:52;23.38;;;2.05;;
31786;SDS011;18356;52.380;9.820;2022-09-09T13:42:24;9.80;;;1.02;;
31786;SDS011;18356;52.380;9.820;2022-09-09T13:44:51;14.10;;;1.40;;
31786;SDS011;18356;52.380;9.820;2022-09-09T13:47:18;18.33;;;1.45;;
31786;SDS011;18356;52.380;9.820;2022-09-09T13:49:45;13.63;;;1.13;;
31786;SDS011;18356;52.380;9.820;2022-09-09T13:52:12;6.68;;;1.20;;
31786;SDS011;18356;52.380;9.820;2022-09-09T13:54:39;5.07;;;1.02;;
31786;SDS011;18356;52.380;9.820;2022-09-09T13:57:12;10.90;;;1.20;;
31786;SDS011;18356;52.380;9.820;2022-09-09T13:59:40;4.57;;;0.80;;
31786;SDS011;18356;52.380;9.820;2022-09-09T14:02:06;6.13;;;0.95;;
31786;SDS011;18356;52.380;9.820;2022-09-09T14:04:32;5.82;;;1.02;;
31786;SDS011;18356;52.380;9.820;2022-09-09T14:07:00;9.88;;;1.10;;
31786;SDS011;18356;52.380;9.820;2022-09-09T14:09:26;16.50;;;1.65;;
31786;SDS011;18356;52.380;9.820;2022-09-09T14:11:52;3.72;;;0.85;;
31786;SDS011;18356;52.380;9.820;2022-09-09T14:14:20;18.75;;;2.00;;
31786;SDS011;18356;52.380;9.820;2022-09-09T14:16:46;19.55;;;1.73;;
31786;SDS011;18356;52.380;9.820;2022-09-09T14:19:12;5.93;;;1.10;;
31786;SDS011;18356;52.380;9.820;2022-09-09T14:21:38;3.20;;;0.77;;
31786;SDS011;18356;52.380;9.820;2022-09-09T14:24:04;3.53;;;0.82;;
31786;SDS011;18356;52.380;9.820;2022-09-09T14:26:31;6.85;;;1.27;;
31786;SDS011;18356;52.380;9.820;2022-09-09T14:28:57;7.40;;;1.50;;
31786;SDS011;18356;52.380;9.820;2022-09-09T14:31:23;7.72;;;2.60;;
31786;SDS011;18356;52.380;9.820;2022-09-09T14:33:50;2.63;;;0.85;;
31786;SDS011;18356;52.380;9.820;2022-09-09T14:36:16;4.93;;;1.20;;
31786;SDS011;18356;52.380;9.820;2022-09-09T14:38:42;4.35;;;1.33;;
31786;SDS011;18356;52.380;9.820;2022-09-09T14:41:12;7.80;;;1.10;;
31786;SDS011;18356;52.380;9.820;2022-09-09T14:43:41;5.47;;;1.27;;
31786;SDS011;18356;52.380;9.820;2022-09-09T14:46:08;5.60;;;1.30;;
31786;SDS011;18356;52.380;9.820;2022-09-09T14:48:35;4.90;;;1.23;;
31786;SDS011;18356;52.380;9.820;2022-09-09T14:51:05;4.13;;;0.95;;
31786;SDS011;18356;52.380;9.820;2022-09-09T14:53:31;3.75;;;0.90;;
31786;SDS011;18356;52.380;9.820;2022-09-09T14:56:11;8.05;;;1.10;;
31786;SDS011;18356;52.380;9.820;2022-09-09T14:58:38;5.13;;;0.90;;
31786;SDS011;18356;52.380;9.820;2022-09-09T15:01:05;4.30;;;0.85;;
31786;SDS011;18356;52.380;9.820;2022-09-09T15:03:31;6.22;;;1.05;;
31786;SDS011;18356;52.380;9.820;2022-09-09T15:05:58;2.58;;;0.65;;
31786;SDS011;18356;52.380;9.820;2022-09-09T15:08:24;3.47;;;0.90;;
31786;SDS011;18356;52.380;9.820;2022-09-09T15:10:58;5.65;;;1.20;;
31786;SDS011;18356;52.380;9.820;2022-09-09T15:13:24;4.63;;;0.93;;
31786;SDS011;18356;52.380;9.820;2022-09-09T15:15:50;3.65;;;0.80;;
31786;SDS011;18356;52.380;9.820;2022-09-09T15:18:16;3.63;;;0.77;;
31786;SDS011;18356;52.380;9.820;2022-09-09T15:20:45;7.05;;;1.40;;
31786;SDS011;18356;52.380;9.820;2022-09-09T15:23:12;6.18;;;1.00;;
31786;SDS011;18356;52.380;9.820;2022-09-09T15:25:55;4.70;;;0.80;;
31786;SDS011;18356;52.380;9.820;2022-09-09T15:28:22;3.55;;;0.88;;
31786;SDS011;18356;52.380;9.820;2022-09-09T15:30:50;7.07;;;0.95;;
31786;SDS011;18356;52.380;9.820;2022-09-09T15:33:17;7.45;;;1.10;;
31786;SDS011;18356;52.380;9.820;2022-09-09T15:35:43;5.95;;;1.27;;
31786;SDS011;18356;52.380;9.820;2022-09-09T15:38:10;6.72;;;0.98;;
31786;SDS011;18356;52.380;9.820;2022-09-09T15:40:38;3.30;;;0.80;;
31786;SDS011;18356;52.380;9.820;2022-09-09T15:43:04;5.22;;;1.20;;
31786;SDS011;18356;52.380;9.820;2022-09-09T15:45:31;2.55;;;0.80;;
31786;SDS011;18356;52.380;9.820;2022-09-09T15:47:59;4.68;;;1.02;;
31786;SDS011;18356;52.380;9.820;2022-09-09T15:50:25;4.00;;;0.80;;
31786;SDS011;18356;52.380;9.820;2022-09-09T15:52:51;3.53;;;1.05;;
31786;SDS011;18356;52.380;9.820;2022-09-09T15:55:18;5.53;;;1.33;;
31786;SDS011;18356;52.380;9.820;2022-09-09T15:57:45;5.20;;;1.00;;
31786;SDS011;18356;52.380;9.820;2022-09-09T16:00:12;9.82;;;1.48;;
31786;SDS011;18356;52.380;9.820;2022-09-09T16:02:40;4.63;;;1.13;;
31786;SDS011;18356;52.380;9.820;2022-09-09T16:05:06;6.05;;;1.00;;
31786;SDS011;18356;52.380;9.820;2022-09-09T16:07:32;5.07;;;1.45;;
31786;SDS011;18356;52.380;9.820;2022-09-09T16:09:59;7.78;;;1.48;;
31786;SDS011;18356;52.380;9.820;2022-09-09T16:12:25;5.03;;;1.15;;
31786;SDS011;18356;52.380;9.820;2022-09-09T16:14:51;6.18;;;1.35;;
31786;SDS011;18356;52.380;9.820;2022-09-09T16:17:17;6.85;;;1.40;;
31786;SDS011;18356;52.380;9.820;2022-09-09T16:19:45;6.38;;;1.30;;
31786;SDS011;18356;52.380;9.820;2022-09-09T16:22:11;10.60;;;3.97;;
31786;SDS011;18356;52.380;9.820;2022-09-09T16:24:40;8.15;;;3.38;;
31786;SDS011;18356;52.380;9.820;2022-09-09T16:27:06;6.97;;;2.85;;
31786;SDS011;18356;52.380;9.820;2022-09-09T16:29:32;5.75;;;2.13;;
31786;SDS011;18356;52.380;9.820;2022-09-09T16:31:58;6.30;;;2.08;;
31786;SDS011;18356;52.380;9.820;2022-09-09T16:34:25;7.30;;;1.77;;
31786;SDS011;18356;52.380;9.820;2022-09-09T16:36:51;5.75;;;1.63;;
31786;SDS011;18356;52.380;9.820;2022-09-09T16:39:19;5.07;;;1.80;;
31786;SDS011;18356;52.380;9.820;2022-09-09T16:41:46;4.80;;;1.40;;
31786;SDS011;18356;52.380;9.820;2022-09-09T16:44:13;8.27;;;1.50;;
31786;SDS011;18356;52.380;9.820;2022-09-09T16:46:41;4.13;;;1.20;;
31786;SDS011;18356;52.380;9.820;2022-09-09T16:49:08;7.65;;;1.58;;
31786;SDS011;18356;52.380;9.820;2022-09-09T16:51:42;4.78;;;1.55;;
31786;SDS011;18356;52.380;9.820;2022-09-09T16:54:09;3.92;;;1.10;;
31786;SDS011;18356;52.380;9.820;2022-09-09T16:56:36;8.18;;;1.40;;
31786;SDS011;18356;52.380;9.820;2022-09-09T16:59:04;6.38;;;1.70;;
31786;SDS011;18356;52.380;9.820;2022-09-09T17:01:31;3.33;;;1.17;;
31786;SDS011;18356;52.380;9.820;2022-09-09T17:04:01;5.30;;;1.33;;
31786;SDS011;18356;52.380;9.820;2022-09-09T17:06:28;6.50;;;1.50;;